Time;durP1;ratioP1;P1;durP2;ratioP2;P2;SDS_P1;SDS_P2;PMS_P1;PMS_P2;Temp;Humidity;BMP_temperature;BMP_pressure;BME280_temperature;BME280_humidity;BME280_pressure;Samples;Min_cycle;Max_cycle;Signal;HPM_P1;HPM_P2
2023/08/04 00:00:16;;;;;;;;;;;;;;;17.72;45.25;100383.91;5095997;28;1073;-58
2023/08/04 00:02:41;;;;;;;;;;;;;;;17.61;45.22;100380.47;5096179;28;984;-58
2023/08/04 00:05:07;;;;;;;;;;;;;;;17.65;44.57;100366.94;5096024;28;1062;-58
2023/08/04 00:07:33;;;;;;;;;;;;;;;17.54;44.86;100373.66;5095408;28;1093;-58
2023/08/04 00:09:58;;;;;;;;;;;;;;;17.57;44.74;100373.06;5095999;28;1130;-58
2023/08/04 00:12:24;;;;;;;;;;;;;;;17.68;44.48;100369.13;5095738;28;1129;-58
2023/08/04 00:14:50;;;;;;;;;;;;;;;17.55;44.44;100362.38;5094876;28;1910;-58
2023/08/04 00:17:15;;;;;;;;;;;;;;;17.51;44.42;100355.81;5095742;28;1193;-58
2023/08/04 00:19:41;;;;;;;;;;;;;;;17.50;44.21;100367.09;5096261;28;1108;-58
2023/08/04 00:22:07;;;;;;;;;;;;;;;17.49;44.63;100359.97;5095960;28;1075;-58
2023/08/04 00:24:32;;;;;;;;;;;;;;;18.30;45.86;100360.19;5096423;28;1235;-58
2023/08/04 00:26:59;;;;;;;;;;;;;;;17.89;46.23;100360.66;5095142;28;893;-58
2023/08/04 00:29:24;;;;;;;;;;;;;;;17.77;45.66;100361.88;5095919;28;1113;-59
2023/08/04 00:31:50;;;;;;;;;;;;;;;17.72;45.48;100361.91;5077799;28;1058;-60
2023/08/04 00:34:15;;;;;;;;;;;;;;;17.74;45.02;100359.72;5077449;28;1972;-59
2023/08/04 00:36:41;;;;;;;;;;;;;;;17.68;44.89;100360.06;5096000;28;1106;-59
2023/08/04 00:39:06;;;;;;;;;;;;;;;17.62;44.53;100357.34;5095688;28;909;-59
2023/08/04 00:41:32;;;;;;;;;;;;;;;17.65;44.33;100355.97;5096021;28;1116;-60
2023/08/04 00:43:58;;;;;;;;;;;;;;;17.59;44.55;100355.19;5095235;28;1066;-59
2023/08/04 00:46:23;;;;;;;;;;;;;;;17.55;44.20;100353.31;5087747;28;1077;-59
2023/08/04 00:48:49;;;;;;;;;;;;;;;17.54;44.50;100349.72;5086125;28;1113;-58
2023/08/04 00:51:14;;;;;;;;;;;;;;;17.58;44.36;100352.72;5099118;28;851;-58
2023/08/04 00:53:40;;;;;;;;;;;;;;;17.52;44.37;100351.16;5099594;28;1177;-58
2023/08/04 00:56:05;;;;;;;;;;;;;;;17.55;44.13;100351.38;5098048;28;1965;-58
2023/08/04 00:58:32;;;;;;;;;;;;;;;17.51;44.17;100346.75;5086638;28;979;-59
2023/08/04 01:00:58;;;;;;;;;;;;;;;17.49;43.97;100348.97;5080828;28;1225;-59
2023/08/04 01:03:24;;;;;;;;;;;;;;;17.47;44.21;100343.75;5081190;28;933;-59
2023/08/04 01:05:52;;;;;;;;;;;;;;;17.41;44.29;100344.94;5099271;28;1078;-58
2023/08/04 01:08:19;;;;;;;;;;;;;;;17.43;44.30;100338.03;5081441;28;1162;-58
2023/08/04 01:10:49;;;;;;;;;;;;;;;17.45;44.12;100343.25;5081160;28;1145;-58
2023/08/04 01:13:19;;;;;;;;;;;;;;;17.41;44.22;100354.00;5099060;28;1146;-58
2023/08/04 01:15:45;;;;;;;;;;;;;;;17.47;43.93;100359.44;5081580;28;1917;-58
2023/08/04 01:18:11;;;;;;;;;;;;;;;17.48;43.87;100361.09;5099253;28;1206;-59
2023/08/04 01:20:37;;;;;;;;;;;;;;;17.44;44.13;100363.59;5096992;28;1073;-58
2023/08/04 01:23:02;;;;;;;;;;;;;;;17.40;43.99;100360.63;5074274;28;1510;-58
2023/08/04 01:25:29;;;;;;;;;;;;;;;18.47;45.38;100354.19;5085304;28;996;-58
2023/08/04 01:27:56;;;;;;;;;;;;;;;17.89;46.21;100355.16;5098902;28;1213;-58
2023/08/04 01:30:22;;;;;;;;;;;;;;;17.78;45.59;100349.78;5067970;28;1163;-58
2023/08/04 01:32:48;;;;;;;;;;;;;;;17.71;45.38;100352.06;5098510;28;1098;-58
2023/08/04 01:35:13;;;;;;;;;;;;;;;17.56;45.18;100354.97;5080791;28;1898;-58
2023/08/04 01:37:39;;;;;;;;;;;;;;;17.61;44.85;100343.91;5097302;28;1155;-59
2023/08/04 01:40:05;;;;;;;;;;;;;;;17.50;45.02;100351.44;5094586;28;988;-58
2023/08/04 01:42:31;;;;;;;;;;;;;;;17.50;44.59;100350.63;5098001;28;920;-58
2023/08/04 01:44:57;;;;;;;;;;;;;;;17.56;44.33;100352.22;5098794;28;1149;-58
2023/08/04 01:47:23;;;;;;;;;;;;;;;17.57;44.37;100353.84;5098325;28;1101;-58
2023/08/04 01:49:48;;;;;;;;;;;;;;;17.43;44.45;100354.53;5098276;28;1233;-59
2023/08/04 01:52:14;;;;;;;;;;;;;;;18.19;45.45;100347.66;5097847;28;1128;-59
2023/08/04 01:54:39;;;;;;;;;;;;;;;17.79;45.64;100350.59;5097674;28;1901;-59
2023/08/04 01:57:05;;;;;;;;;;;;;;;17.81;45.26;100347.53;5097883;28;1042;-59
2023/08/04 01:59:31;;;;;;;;;;;;;;;17.63;45.17;100358.19;5080119;28;1217;-58
2023/08/04 02:01:56;;;;;;;;;;;;;;;17.64;44.86;100362.56;5097855;28;1137;-59
2023/08/04 02:04:22;;;;;;;;;;;;;;;17.65;44.65;100361.47;5098094;28;1006;-59
2023/08/04 02:06:47;;;;;;;;;;;;;;;17.56;44.48;100358.53;5079916;28;1102;-59
2023/08/04 02:09:13;;;;;;;;;;;;;;;17.56;44.55;100360.47;5079962;28;1626;-59
2023/08/04 02:11:39;;;;;;;;;;;;;;;17.51;44.68;100360.50;5083822;28;1078;-59
2023/08/04 02:14:04;;;;;;;;;;;;;;;17.51;44.31;100360.50;5073414;28;1976;-59
2023/08/04 02:16:30;;;;;;;;;;;;;;;17.49;44.38;100374.53;5094141;28;1146;-60
2023/08/04 02:19:05;;;;;;;;;;;;;;;17.49;44.13;100365.47;5098131;28;1149;-59
2023/08/04 02:21:31;;;;;;;;;;;;;;;17.50;44.16;100370.69;5096402;28;1402;-58
2023/08/04 02:23:56;;;;;;;;;;;;;;;17.40;44.48;100377.09;5075798;28;1367;-58
2023/08/04 02:26:22;;;;;;;;;;;;;;;17.44;44.23;100372.66;5094478;28;1435;-59
2023/08/04 02:28:49;;;;;;;;;;;;;;;17.77;44.78;100369.31;5070736;28;1221;-59
2023/08/04 02:31:17;;;;;;;;;;;;;;;18.23;46.09;100374.31;5086785;28;1062;-59
2023/08/04 02:33:44;;;;;;;;;;;;;;;17.96;45.88;100377.66;5089439;28;1023;-59
2023/08/04 02:36:10;;;;;;;;;;;;;;;17.78;45.41;100377.28;5089149;28;1905;-59
2023/08/04 02:38:36;;;;;;;;;;;;;;;17.68;45.39;100369.13;5088101;28;937;-58
2023/08/04 02:41:02;;;;;;;;;;;;;;;17.77;44.85;100374.81;5097126;28;1114;-58
2023/08/04 02:43:28;;;;;;;;;;;;;;;17.61;44.80;100383.22;5079499;28;1221;-59
2023/08/04 02:45:54;;;;;;;;;;;;;;;17.64;44.59;100381.81;5097361;28;1039;-59
2023/08/04 02:48:19;;;;;;;;;;;;;;;17.63;44.34;100385.69;5097423;28;1127;-59
2023/08/04 02:50:46;;;;;;;;;;;;;;;17.57;44.35;100382.16;5096995;28;1121;-60
2023/08/04 02:53:12;;;;;;;;;;;;;;;17.54;44.38;100381.91;5097417;28;1093;-58
2023/08/04 02:55:38;;;;;;;;;;;;;;;17.52;44.19;100382.22;5078993;28;1930;-59
2023/08/04 02:58:03;;;;;;;;;;;;;;;17.53;44.19;100388.50;5097371;28;1065;-59
2023/08/04 03:00:30;;;;;;;;;;;;;;;17.49;44.21;100387.44;5096975;28;1150;-59
2023/08/04 03:02:55;;;;;;;;;;;;;;;17.51;44.21;100391.56;5092811;28;1237;-63
2023/08/04 03:05:21;;;;;;;;;;;;;;;17.45;44.36;100390.78;5074462;28;1035;-58
2023/08/04 03:07:46;;;;;;;;;;;;;;;17.40;44.10;100390.00;5096261;28;1257;-64
2023/08/04 03:10:12;;;;;;;;;;;;;;;17.48;44.15;100383.88;5097162;28;1197;-59
2023/08/04 03:12:38;;;;;;;;;;;;;;;17.51;44.03;100388.00;5096920;28;1034;-61
2023/08/04 03:15:04;;;;;;;;;;;;;;;17.53;44.08;100388.50;5087201;28;1897;-62
2023/08/04 03:17:30;;;;;;;;;;;;;;;17.36;44.23;100391.69;5093009;28;1206;-62
2023/08/04 03:19:55;;;;;;;;;;;;;;;17.50;43.84;100391.84;5095292;28;1585;-64
2023/08/04 03:22:21;;;;;;;;;;;;;;;17.34;44.47;100388.44;5096313;28;1083;-65
2023/08/04 03:24:46;;;;;;;;;;;;;;;17.47;44.13;100384.19;5096517;28;1105;-62
2023/08/04 03:27:12;;;;;;;;;;;;;;;17.45;44.00;100388.03;5095794;28;1057;-62
2023/08/04 03:29:37;;;;;;;;;;;;;;;17.37;44.00;100394.16;5096802;28;1086;-60
2023/08/04 03:32:03;;;;;;;;;;;;;;;17.39;43.97;100397.44;5095844;28;1058;-60
2023/08/04 03:34:29;;;;;;;;;;;;;;;17.38;44.10;100395.00;5096665;28;1980;-63
2023/08/04 03:36:54;;;;;;;;;;;;;;;17.42;43.97;100396.88;5096627;28;1537;-62
2023/08/04 03:39:20;;;;;;;;;;;;;;;17.33;44.36;100404.06;5095997;28;1082;-62
2023/08/04 03:41:45;;;;;;;;;;;;;;;17.38;44.06;100398.53;5096470;28;1039;-59
2023/08/04 03:44:11;;;;;;;;;;;;;;;17.37;44.15;100399.66;5096193;28;1129;-62
2023/08/04 03:46:36;;;;;;;;;;;;;;;17.93;44.94;100411.25;5096418;28;1141;-58
2023/08/04 03:49:02;;;;;;;;;;;;;;;17.93;45.80;100401.06;5096209;28;1326;-57
2023/08/04 03:51:28;;;;;;;;;;;;;;;17.65;45.95;100402.69;5096240;28;1185;-58
2023/08/04 03:53:53;;;;;;;;;;;;;;;17.65;45.30;100408.19;5096443;28;1153;-60
2023/08/04 03:56:19;;;;;;;;;;;;;;;17.58;45.08;100405.78;5085656;28;1906;-58
2023/08/04 03:58:44;;;;;;;;;;;;;;;17.56;44.99;100401.72;5076190;28;1105;-59
2023/08/04 04:01:10;;;;;;;;;;;;;;;17.57;44.74;100403.31;5087156;28;1190;-58
2023/08/04 04:03:35;;;;;;;;;;;;;;;17.56;44.29;100410.75;5095206;28;1094;-56
2023/08/04 04:06:01;;;;;;;;;;;;;;;17.51;44.59;100410.00;5095947;28;1542;-59
2023/08/04 04:08:26;;;;;;;;;;;;;;;17.47;44.32;100414.41;5078216;28;1090;-56
2023/08/04 04:10:54;;;;;;;;;;;;;;;17.38;44.52;100412.28;5096432;28;1162;-58
2023/08/04 04:13:21;;;;;;;;;;;;;;;17.44;44.31;100419.38;5082529;28;1081;-58
2023/08/04 04:15:46;;;;;;;;;;;;;;;17.47;44.33;100414.41;5081430;28;1968;-58
2023/08/04 04:18:12;;;;;;;;;;;;;;;17.42;44.44;100410.59;5078435;28;1074;-58
2023/08/04 04:20:37;;;;;;;;;;;;;;;18.17;45.31;100410.44;5087049;28;895;-58
2023/08/04 04:23:03;;;;;;;;;;;;;;;17.79;45.71;100417.44;5079260;28;1066;-59
2023/08/04 04:25:28;;;;;;;;;;;;;;;17.67;45.51;100419.75;5085698;28;917;-60
2023/08/04 04:27:54;;;;;;;;;;;;;;;17.66;45.17;100414.53;5086209;28;1046;-59
2023/08/04 04:30:19;;;;;;;;;;;;;;;17.65;44.83;100415.63;5093239;28;1079;-58
2023/08/04 04:32:45;;;;;;;;;;;;;;;17.60;44.91;100414.56;5086301;28;1138;-61
2023/08/04 04:35:11;;;;;;;;;;;;;;;17.52;44.71;100423.44;5099444;28;1980;-62
2023/08/04 04:37:37;;;;;;;;;;;;;;;17.59;44.49;100414.88;5093661;28;1019;-60
2023/08/04 04:40:03;;;;;;;;;;;;;;;17.57;44.34;100419.81;5089809;28;1122;-62
2023/08/04 04:42:28;;;;;;;;;;;;;;;17.53;44.43;100427.84;5096549;28;1062;-63
2023/08/04 04:44:54;;;;;;;;;;;;;;;17.54;44.45;100418.47;5079277;28;1031;-64
2023/08/04 04:47:19;;;;;;;;;;;;;;;17.70;44.77;100432.91;5082833;28;1042;-63
2023/08/04 04:49:45;;;;;;;;;;;;;;;18.79;43.38;100433.31;5099340;28;1230;-63
2023/08/04 04:52:13;;;;;;;;;;;;;;;18.43;44.59;100428.28;5085954;28;1154;-60
2023/08/04 04:54:39;;;;;;;;;;;;;;;18.34;45.19;100426.47;5099127;28;1971;-60
2023/08/04 04:57:04;;;;;;;;;;;;;;;18.23;45.65;100429.34;5082112;28;1065;-61
2023/08/04 04:59:30;;;;;;;;;;;;;;;18.09;46.44;100437.50;5090041;28;1115;-58
2023/08/04 05:01:56;;;;;;;;;;;;;;;18.12;46.62;100442.41;5095414;28;1184;-61
2023/08/04 05:04:21;;;;;;;;;;;;;;;18.07;46.87;100447.16;5089530;28;841;-61
2023/08/04 05:06:47;;;;;;;;;;;;;;;17.96;47.24;100438.16;5098861;28;1089;-61
2023/08/04 05:09:13;;;;;;;;;;;;;;;17.93;47.85;100438.75;5086033;28;1245;-64
2023/08/04 05:11:38;;;;;;;;;;;;;;;17.94;47.94;100441.22;5097642;28;1003;-60
2023/08/04 05:14:04;;;;;;;;;;;;;;;17.90;48.30;100444.81;5079010;28;1990;-61
2023/08/04 05:16:30;;;;;;;;;;;;;;;17.89;48.41;100437.66;5097360;28;1197;-60
2023/08/04 05:18:55;;;;;;;;;;;;;;;17.85;48.60;100442.09;5094444;28;1268;-62
2023/08/04 05:21:21;;;;;;;;;;;;;;;17.82;49.06;100434.44;5081883;28;1157;-61
2023/08/04 05:23:46;;;;;;;;;;;;;;;17.78;49.22;100445.19;5099104;28;1026;-61
2023/08/04 05:26:12;;;;;;;;;;;;;;;17.79;49.39;100439.44;5098979;28;1050;-59
2023/08/04 05:28:37;;;;;;;;;;;;;;;17.72;49.60;100438.91;5090714;28;1471;-64
2023/08/04 05:31:03;;;;;;;;;;;;;;;17.74;49.85;100441.38;5098188;28;1351;-60
2023/08/04 05:33:29;;;;;;;;;;;;;;;17.73;49.91;100439.75;5081030;28;1130;-57
2023/08/04 05:35:55;;;;;;;;;;;;;;;17.73;50.30;100443.31;5079033;28;1902;-62
2023/08/04 05:38:21;;;;;;;;;;;;;;;17.68;50.43;100440.59;5082944;28;1007;-62
2023/08/04 05:40:46;;;;;;;;;;;;;;;17.66;50.60;100434.59;5082467;28;1134;-64
2023/08/04 05:43:12;;;;;;;;;;;;;;;17.62;50.61;100439.03;5087777;28;1126;-61
2023/08/04 05:45:39;;;;;;;;;;;;;;;17.64;50.63;100441.47;5077971;28;1066;-61
2023/08/04 05:48:05;;;;;;;;;;;;;;;17.64;51.03;100445.03;5078591;28;1022;-65
2023/08/04 05:50:30;;;;;;;;;;;;;;;17.61;50.95;100448.38;5081102;28;1297;-60
2023/08/04 05:52:56;;;;;;;;;;;;;;;17.55;51.29;100446.78;5088333;28;955;-63
2023/08/04 05:55:22;;;;;;;;;;;;;;;17.51;51.42;100448.47;5091294;28;1972;-61
2023/08/04 05:57:47;;;;;;;;;;;;;;;17.55;51.73;100450.34;5088223;28;1205;-62
2023/08/04 06:00:13;;;;;;;;;;;;;;;17.54;51.61;100451.44;5084808;28;1398;-63
2023/08/04 06:02:38;;;;;;;;;;;;;;;17.48;52.05;100455.38;5087905;28;1145;-65
2023/08/04 06:05:04;;;;;;;;;;;;;;;17.51;51.88;100464.97;5091165;28;1102;-61
2023/08/04 06:07:30;;;;;;;;;;;;;;;17.53;52.04;100457.25;5097077;28;1241;-66
2023/08/04 06:09:55;;;;;;;;;;;;;;;17.50;52.31;100457.81;5097956;28;1277;-65
2023/08/04 06:12:21;;;;;;;;;;;;;;;17.48;52.26;100460.88;5090193;28;1055;-62
2023/08/04 06:14:46;;;;;;;;;;;;;;;17.49;52.38;100456.16;5081745;28;1973;-61
2023/08/04 06:17:12;;;;;;;;;;;;;;;17.49;52.35;100461.66;5084117;28;932;-63
2023/08/04 06:19:41;;;;;;;;;;;;;;;17.48;52.53;100462.81;5087082;28;1099;-63
2023/08/04 06:22:07;;;;;;;;;;;;;;;17.42;52.71;100457.34;5094811;28;1162;-68
2023/08/04 06:24:33;;;;;;;;;;;;;;;17.47;52.53;100463.91;5096629;28;1331;-66
2023/08/04 06:26:58;;;;;;;;;;;;;;;17.50;52.71;100460.56;5096195;28;1370;-65
2023/08/04 06:29:24;;;;;;;;;;;;;;;17.49;52.80;100457.00;5094202;28;1149;-67
2023/08/04 06:31:49;;;;;;;;;;;;;;;17.47;53.11;100452.91;5097202;28;1308;-63
2023/08/04 06:34:15;;;;;;;;;;;;;;;17.42;53.13;100460.09;5096940;28;1976;-65
2023/08/04 06:36:41;;;;;;;;;;;;;;;17.42;53.31;100462.03;5097313;28;1284;-64
2023/08/04 06:39:07;;;;;;;;;;;;;;;17.50;53.22;100458.66;5079333;28;1403;-67
2023/08/04 06:41:32;;;;;;;;;;;;;;;17.42;53.43;100462.84;5096393;28;879;-65
2023/08/04 06:43:58;;;;;;;;;;;;;;;17.38;53.60;100458.19;5077188;28;1125;-67
2023/08/04 06:46:23;;;;;;;;;;;;;;;17.43;53.42;100458.97;5077469;28;1113;-66
2023/08/04 06:48:49;;;;;;;;;;;;;;;17.40;53.55;100465.06;5092168;28;1156;-66
2023/08/04 06:51:14;;;;;;;;;;;;;;;17.41;53.77;100461.19;5097687;28;1154;-62
2023/08/04 06:53:40;;;;;;;;;;;;;;;17.42;53.62;100468.31;5095018;28;1096;-61
2023/08/04 06:56:06;;;;;;;;;;;;;;;17.43;53.58;100461.72;5096842;28;1913;-63
2023/08/04 06:58:31;;;;;;;;;;;;;;;17.41;53.55;100468.63;5089918;28;1113;-62
2023/08/04 07:00:57;;;;;;;;;;;;;;;17.38;53.67;100469.19;5077080;28;1030;-65
2023/08/04 07:03:22;;;;;;;;;;;;;;;17.41;53.58;100471.38;5096741;28;1212;-64
2023/08/04 07:05:48;;;;;;;;;;;;;;;17.45;53.83;100465.00;5094171;28;1069;-67
2023/08/04 07:08:13;;;;;;;;;;;;;;;17.41;53.65;100472.19;5076659;28;1098;-67
2023/08/04 07:10:39;;;;;;;;;;;;;;;17.38;53.81;100470.00;5089768;28;1034;-64
2023/08/04 07:13:05;;;;;;;;;;;;;;;17.38;54.02;100475.50;5081150;28;1106;-65
2023/08/04 07:15:31;;;;;;;;;;;;;;;17.44;53.66;100471.59;5096872;28;1973;-67
2023/08/04 07:17:56;;;;;;;;;;;;;;;17.38;54.02;100464.50;5089808;28;902;-64
2023/08/04 07:20:22;;;;;;;;;;;;;;;17.40;54.01;100473.31;5093691;28;1054;-63
2023/08/04 07:22:47;;;;;;;;;;;;;;;17.43;53.98;100475.47;5088449;28;1441;-64
2023/08/04 07:25:13;;;;;;;;;;;;;;;17.37;54.08;100476.59;5096854;28;1110;-67
2023/08/04 07:27:38;;;;;;;;;;;;;;;17.35;54.16;100473.34;5096804;28;1105;-61
2023/08/04 07:30:04;;;;;;;;;;;;;;;17.34;54.10;100479.94;5091536;28;1186;-60
2023/08/04 07:32:30;;;;;;;;;;;;;;;17.37;54.11;100479.34;5096604;28;1477;-67
2023/08/04 07:34:55;;;;;;;;;;;;;;;17.39;54.42;100479.91;5094464;28;1975;-64
2023/08/04 07:37:21;;;;;;;;;;;;;;;17.38;54.27;100488.44;5084295;28;1075;-62
2023/08/04 07:39:47;;;;;;;;;;;;;;;17.38;54.38;100475.50;5088103;28;1504;-62
2023/08/04 07:42:12;;;;;;;;;;;;;;;17.38;54.43;100478.25;5075575;28;903;-60
2023/08/04 07:44:38;;;;;;;;;;;;;;;17.43;54.11;100478.22;5083916;28;1143;-63
2023/08/04 07:47:03;;;;;;;;;;;;;;;17.41;54.19;100482.38;5093681;28;1326;-63
2023/08/04 07:49:29;;;;;;;;;;;;;;;17.38;54.30;100482.94;5075839;28;1019;-64
2023/08/04 07:51:54;;;;;;;;;;;;;;;17.39;54.15;100482.66;5095073;28;1162;-65
2023/08/04 07:54:21;;;;;;;;;;;;;;;17.41;54.35;100487.84;5082669;28;1982;-66
2023/08/04 07:56:46;;;;;;;;;;;;;;;17.36;54.49;100485.97;5082541;28;1010;-60
2023/08/04 07:59:12;;;;;;;;;;;;;;;17.36;54.36;100485.97;5083121;28;1165;-67
2023/08/04 08:01:38;;;;;;;;;;;;;;;17.39;54.28;100485.41;5082427;28;1023;-61
2023/08/04 08:04:03;;;;;;;;;;;;;;;17.38;54.51;100489.25;5083338;28;1126;-66
2023/08/04 08:06:29;;;;;;;;;;;;;;;17.40;54.43;100489.78;5075742;28;1026;-61
2023/08/04 08:08:54;;;;;;;;;;;;;;;17.38;54.46;100488.44;5086912;28;1538;-62
2023/08/04 08:11:20;;;;;;;;;;;;;;;17.37;54.42;100489.53;5090298;28;1197;-64
2023/08/04 08:13:46;;;;;;;;;;;;;;;17.40;54.55;100492.53;5084112;28;1055;-66
2023/08/04 08:16:14;;;;;;;;;;;;;;;17.35;54.52;100478.84;5089268;28;1993;-66
2023/08/04 08:18:41;;;;;;;;;;;;;;;17.36;54.60;100488.72;5083150;28;988;-66
2023/08/04 08:21:07;;;;;;;;;;;;;;;17.38;54.46;100494.75;5095049;28;1035;-65
2023/08/04 08:23:32;;;;;;;;;;;;;;;17.37;54.30;100493.09;5082608;28;1041;-66
2023/08/04 08:25:58;;;;;;;;;;;;;;;17.40;54.41;100491.72;5082105;28;1049;-66
2023/08/04 08:28:23;;;;;;;;;;;;;;;17.42;54.46;100501.31;5096221;28;1134;-66
2023/08/04 08:30:49;;;;;;;;;;;;;;;17.39;54.66;100490.91;5090349;28;1065;-65
2023/08/04 08:33:14;;;;;;;;;;;;;;;17.42;54.55;100492.25;5095408;28;1179;-66
2023/08/04 08:35:40;;;;;;;;;;;;;;;17.37;54.88;100493.09;5095793;28;1980;-65
2023/08/04 08:38:06;;;;;;;;;;;;;;;17.44;54.51;100492.78;5095635;28;1043;-65
2023/08/04 08:40:31;;;;;;;;;;;;;;;17.36;54.79;100490.63;5095125;28;1082;-66
2023/08/04 08:42:57;;;;;;;;;;;;;;;17.41;54.68;100493.34;5094878;28;1037;-65
2023/08/04 08:45:27;;;;;;;;;;;;;;;17.44;54.52;100490.03;5095729;28;1382;-62
2023/08/04 08:47:53;;;;;;;;;;;;;;;17.39;54.59;100496.38;5094199;28;1295;-65
2023/08/04 08:50:18;;;;;;;;;;;;;;;17.41;54.63;100494.16;5074557;28;1289;-65
2023/08/04 08:52:44;;;;;;;;;;;;;;;17.41;54.85;100494.16;5073596;28;1425;-66
2023/08/04 08:55:09;;;;;;;;;;;;;;;17.41;54.73;100496.91;5062996;28;1906;-66
2023/08/04 08:57:35;;;;;;;;;;;;;;;17.42;54.82;100493.06;5071037;28;1455;-66
2023/08/04 09:00:00;;;;;;;;;;;;;;;17.48;54.80;100493.03;5074852;28;1275;-66
2023/08/04 09:02:26;;;;;;;;;;;;;;;17.45;54.54;100492.50;5075348;28;1129;-65
2023/08/04 09:04:52;;;;;;;;;;;;;;;17.42;54.67;100500.50;5073438;28;1465;-66
2023/08/04 09:07:17;;;;;;;;;;;;;;;17.50;54.52;100502.66;5078792;28;1200;-66
2023/08/04 09:09:43;;;;;;;;;;;;;;;17.42;54.66;100506.00;5078891;28;1105;-66
2023/08/04 09:12:09;;;;;;;;;;;;;;;17.38;54.87;100500.25;5078944;28;983;-65
2023/08/04 09:14:51;;;;;;;;;;;;;;;17.43;54.74;100502.97;5078885;28;1984;-66
2023/08/04 09:17:29;;;;;;;;;;;;;;;17.43;54.94;100502.13;5062358;28;1038;-66
2023/08/04 09:19:55;;;;;;;;;;;;;;;17.41;55.03;100494.16;5074566;28;1362;-66
2023/08/04 09:22:21;;;;;;;;;;;;;;;17.41;54.86;100504.34;5077938;28;1324;-66
2023/08/04 09:25:12;;;;;;;;;;;;;;;17.47;54.71;100499.63;5077949;28;1018;-65
2023/08/04 09:27:38;;;;;;;;;;;;;;;17.48;54.71;100498.53;5063736;28;1130;-64
2023/08/04 09:30:05;;;;;;;;;;;;;;;17.42;54.75;100506.00;5064073;28;1093;-64
2023/08/04 09:32:32;;;;;;;;;;;;;;;17.51;54.66;100515.25;5072305;28;1137;-64
2023/08/04 09:35:02;;;;;;;;;;;;;;;17.42;55.12;100506.00;5065805;28;1984;-61
2023/08/04 09:37:29;;;;;;;;;;;;;;;17.47;54.78;100508.69;5066248;28;1126;-63
2023/08/04 09:39:54;;;;;;;;;;;;;;;17.44;55.00;100504.56;5069582;28;1098;-64
2023/08/04 09:42:21;;;;;;;;;;;;;;;17.48;54.84;100504.84;5072361;28;1166;-62
2023/08/04 09:44:51;;;;;;;;;;;;;;;17.52;54.66;100510.59;5077673;28;1041;-64
2023/08/04 09:47:20;;;;;;;;;;;;;;;17.52;54.55;100507.84;5078461;28;1126;-66
2023/08/04 09:49:45;;;;;;;;;;;;;;;17.52;54.66;100510.59;5088854;28;1059;-64
2023/08/04 09:52:11;;;;;;;;;;;;;;;17.50;54.77;100501.81;5088687;28;1307;-65
2023/08/04 09:54:36;;;;;;;;;;;;;;;17.49;54.80;100503.75;5089601;28;1897;-62
2023/08/04 09:57:02;;;;;;;;;;;;;;;17.51;54.87;100498.75;5098580;28;1310;-60
2023/08/04 09:59:28;;;;;;;;;;;;;;;17.56;54.50;100503.44;5097975;28;1371;-62
2023/08/04 10:01:53;;;;;;;;;;;;;;;17.48;54.99;100507.59;5080449;28;1340;-66
2023/08/04 10:04:19;;;;;;;;;;;;;;;17.50;54.79;100502.66;5080527;28;1063;-65
2023/08/04 10:06:44;;;;;;;;;;;;;;;17.52;54.85;100499.59;5097858;28;951;-64
2023/08/04 10:09:11;;;;;;;;;;;;;;;17.52;54.88;100499.59;5080050;28;1414;-63
2023/08/04 10:11:37;;;;;;;;;;;;;;;17.54;54.67;100497.38;5098111;28;1292;-63
2023/08/04 10:14:04;;;;;;;;;;;;;;;17.55;54.63;100491.59;5098369;28;1126;-62
2023/08/04 10:16:31;;;;;;;;;;;;;;;17.49;54.85;100500.16;5079361;28;1909;-61
2023/08/04 10:19:00;;;;;;;;;;;;;;;17.50;55.03;100496.31;5090427;28;1335;-62
2023/08/04 10:21:27;;;;;;;;;;;;;;;17.53;54.78;100495.72;5079391;28;1043;-63
2023/08/04 10:23:53;;;;;;;;;;;;;;;17.49;55.11;100490.00;5091039;28;1034;-63
2023/08/04 10:26:18;;;;;;;;;;;;;;;17.53;54.88;100501.22;5092577;28;1327;-60
2023/08/04 10:29:02;;;;;;;;;;;;;;;17.49;55.03;100500.16;5086666;28;1034;-61
2023/08/04 10:31:40;;;;;;;;;;;;;;;17.55;54.96;100501.78;5095227;28;813;-62
2023/08/04 10:34:25;;;;;;;;;;;;;;;17.57;54.81;100494.03;5091089;28;1154;-64
2023/08/04 10:36:57;;;;;;;;;;;;;;;17.55;54.74;100493.53;5087027;28;1522;-63
2023/08/04 10:39:29;;;;;;;;;;;;;;;17.57;54.83;100494.88;5092998;28;1015;-65
2023/08/04 10:41:55;;;;;;;;;;;;;;;17.58;54.69;100498.44;5089072;28;1197;-65
2023/08/04 10:44:25;;;;;;;;;;;;;;;17.52;54.98;100494.91;5078036;28;1154;-64
2023/08/04 10:46:52;;;;;;;;;;;;;;;17.54;54.61;100489.94;5072923;28;1372;-61
2023/08/04 10:49:17;;;;;;;;;;;;;;;17.53;55.03;100496.56;5076458;28;1071;-63
2023/08/04 10:51:45;;;;;;;;;;;;;;;17.53;54.72;100499.31;5077716;28;1196;-66
2023/08/04 10:54:11;;;;;;;;;;;;;;;17.54;54.97;100500.13;5067230;28;1139;-63
2023/08/04 10:56:37;;;;;;;;;;;;;;;17.53;54.74;100495.72;5095217;28;1259;-64
2023/08/04 10:59:06;;;;;;;;;;;;;;;17.52;55.14;100500.41;5097115;28;1037;-63
2023/08/04 11:01:31;;;;;;;;;;;;;;;17.57;55.25;100502.28;5077834;28;1209;-65
2023/08/04 11:03:58;;;;;;;;;;;;;;;17.56;55.14;100500.69;5077102;28;1142;-64
2023/08/04 11:06:23;;;;;;;;;;;;;;;17.60;55.10;100499.00;5064510;28;1087;-65
2023/08/04 11:08:49;;;;;;;;;;;;;;;17.56;55.01;100495.19;5097030;28;1029;-59
2023/08/04 11:11:14;;;;;;;;;;;;;;;17.57;55.15;100502.28;5090725;28;1579;-59
2023/08/04 11:13:40;;;;;;;;;;;;;;;17.55;55.09;100499.03;5089661;28;1166;-63
2023/08/04 11:16:06;;;;;;;;;;;;;;;17.61;54.87;100498.72;5079445;28;1983;-64
2023/08/04 11:18:32;;;;;;;;;;;;;;;17.55;55.16;100497.09;5088301;28;1086;-65
2023/08/04 11:21:01;;;;;;;;;;;;;;;17.58;55.05;100492.94;5097114;28;1224;-61
2023/08/04 11:23:27;;;;;;;;;;;;;;;17.56;54.96;100506.19;5090914;28;1109;-62
2023/08/04 11:25:53;;;;;;;;;;;;;;;17.56;55.10;100495.19;5088909;28;1106;-62
2023/08/04 11:28:19;;;;;;;;;;;;;;;17.56;54.94;100492.44;5067600;28;1162;-64
2023/08/04 11:30:45;;;;;;;;;;;;;;;17.55;54.95;100499.03;5089428;28;1490;-65
2023/08/04 11:33:10;;;;;;;;;;;;;;;17.57;54.97;100486.63;5089905;28;1101;-65
2023/08/04 11:35:36;;;;;;;;;;;;;;;17.59;54.83;100495.41;5096379;28;1976;-65
2023/08/04 11:38:03;;;;;;;;;;;;;;;17.60;55.07;100501.75;5096079;28;1446;-63
2023/08/04 11:40:28;;;;;;;;;;;;;;;17.60;55.02;100496.25;5077757;28;1228;-64
2023/08/04 11:42:56;;;;;;;;;;;;;;;17.56;54.89;100495.19;5094303;28;1300;-63
2023/08/04 11:45:22;;;;;;;;;;;;;;;17.62;55.01;100499.50;5096127;28;1256;-66
2023/08/04 11:47:48;;;;;;;;;;;;;;;17.60;55.04;100501.75;5082881;28;1154;-64
2023/08/04 11:50:14;;;;;;;;;;;;;;;17.58;54.82;100504.75;5095981;28;1082;-65
2023/08/04 11:52:39;;;;;;;;;;;;;;;17.57;54.93;100496.78;5079434;28;990;-59
2023/08/04 11:55:05;;;;;;;;;;;;;;;17.60;54.84;100497.06;5086389;28;1964;-64
2023/08/04 11:57:31;;;;;;;;;;;;;;;17.61;54.84;100495.13;5092623;28;1133;-60
2023/08/04 11:59:57;;;;;;;;;;;;;;;17.58;55.00;100498.44;5076263;28;1055;-63
2023/08/04 12:02:23;;;;;;;;;;;;;;;17.59;54.89;100487.16;5092620;28;1114;-67
2023/08/04 12:05:07;;;;;;;;;;;;;;;17.62;54.96;100485.78;5094522;28;1212;-67
2023/08/04 12:07:33;;;;;;;;;;;;;;;17.61;54.89;100482.22;5095498;28;1160;-64
2023/08/04 12:09:58;;;;;;;;;;;;;;;17.61;54.87;100481.38;5082629;28;1082;-62
2023/08/04 12:12:40;;;;;;;;;;;;;;;17.58;54.83;100479.19;5095355;28;1365;-67
2023/08/04 12:15:06;;;;;;;;;;;;;;;17.56;54.80;100474.00;5095830;28;1985;-66
2023/08/04 12:17:35;;;;;;;;;;;;;;;17.59;54.90;100483.59;5083651;28;1344;-65
2023/08/04 12:20:01;;;;;;;;;;;;;;;17.62;54.81;100483.03;5094427;28;1186;-67
2023/08/04 12:22:26;;;;;;;;;;;;;;;17.58;55.03;100477.25;5083565;28;1174;-64
2023/08/04 12:24:52;;;;;;;;;;;;;;;17.59;54.90;100473.41;5094839;28;1125;-63
2023/08/04 12:27:17;;;;;;;;;;;;;;;17.54;54.97;100473.44;5089094;28;1331;-67
2023/08/04 12:29:43;;;;;;;;;;;;;;;17.53;54.97;100466.31;5095915;28;1103;-64
2023/08/04 12:32:09;;;;;;;;;;;;;;;17.65;54.74;100465.13;5094073;28;836;-67
2023/08/04 12:34:34;;;;;;;;;;;;;;;17.63;54.62;100468.16;5075872;28;1910;-62
2023/08/04 12:37:00;;;;;;;;;;;;;;;17.64;54.82;100466.22;5075574;28;1042;-66
2023/08/04 12:39:27;;;;;;;;;;;;;;;17.60;54.79;100468.75;5090238;28;1206;-63
2023/08/04 12:41:52;;;;;;;;;;;;;;;17.58;54.87;100465.44;5091558;28;1034;-63